Terminal Aerodrome Forecast
Issued by NWS Twin Cities, MN

Home | Current Version | Previous Version | Text Only | Print | Product List | Glossary On
Versions: 1 2 3 4 5 6 7 8 9 10 11 12 13 14 15 16
866
FTUS43 KMPX 060542
TAFEAU
TAF
KEAU 060542Z 0606/0706 22006KT P6SM OVC013
     FM061200 22005KT P6SM OVC008
     FM061600 21008KT P6SM SCT100 BKN200
     FM070000 21011KT P6SM OVC070=

USA.gov is the U.S. government's official web portal to all federal, state and local government web resources and services.